Beryl Junction, Utah
Current Conditions -  °F | °C
As of 10:53 PM on Thursday 27 Nov 2014 (Local Time) from KCDC Reporting Station
Clear Clear  
Wind Chill: 38°   Ceiling: Unl
Heat Index: 43°   Visibility: 10mi
Dew Point: 10°   Wind: 9mph
Humidity: 26%   Direction: 130°SE
Pressure: 30.24"   Gusts: NA
Location:  38.0286°N, 113.572°W
Report Text: KCDC 280553Z AUTO 13008KT 10SM CLR 06/M12 A3024 RMK AO2 SLP209 T00611122 10144 20044 58007
Loading
Personal Weather Stations






























Interactive Weather Map New forecast layout! Learn more

10-Day Weather Forecast

Advertisements
Track Severe Weather on mobile